sensor_id;sensor_type;location;lat;lon;timestamp;temperature;humidity
71254;HTU21D;59019;47.638;18.966;2023-08-21T00:01:22;20.56;113.58
71254;HTU21D;59019;47.638;18.966;2023-08-21T00:03:48;20.58;111.68
71254;HTU21D;59019;47.638;18.966;2023-08-21T00:06:14;20.57;110.92
71254;HTU21D;59019;47.638;18.966;2023-08-21T00:08:39;20.56;111.43
71254;HTU21D;59019;47.638;18.966;2023-08-21T00:11:05;20.56;111.19
71254;HTU21D;59019;47.638;18.966;2023-08-21T00:13:30;20.60;111.82
71254;HTU21D;59019;47.638;18.966;2023-08-21T00:15:56;20.58;111.01
71254;HTU21D;59019;47.638;18.966;2023-08-21T00:18:22;20.62;110.51
71254;HTU21D;59019;47.638;18.966;2023-08-21T00:20:47;20.62;109.59
71254;HTU21D;59019;47.638;18.966;2023-08-21T00:23:13;20.69;108.19
71254;HTU21D;59019;47.638;18.966;2023-08-21T00:25:39;20.55;111.02
71254;HTU21D;59019;47.638;18.966;2023-08-21T00:28:04;20.51;111.32
71254;HTU21D;59019;47.638;18.966;2023-08-21T00:30:30;20.41;111.91
71254;HTU21D;59019;47.638;18.966;2023-08-21T00:32:56;20.37;112.58
71254;HTU21D;59019;47.638;18.966;2023-08-21T00:35:21;20.44;113.34
71254;HTU21D;59019;47.638;18.966;2023-08-21T00:37:47;20.48;114.35
71254;HTU21D;59019;47.638;18.966;2023-08-21T00:40:12;20.44;115.56
71254;HTU21D;59019;47.638;18.966;2023-08-21T00:42:38;20.43;113.62
71254;HTU21D;59019;47.638;18.966;2023-08-21T00:45:04;20.44;113.35
71254;HTU21D;59019;47.638;18.966;2023-08-21T00:47:30;20.47;111.49
71254;HTU21D;59019;47.638;18.966;2023-08-21T00:49:56;20.50;111.18
71254;HTU21D;59019;47.638;18.966;2023-08-21T00:52:21;20.51;111.77
71254;HTU21D;59019;47.638;18.966;2023-08-21T00:54:47;20.45;112.52
71254;HTU21D;59019;47.638;18.966;2023-08-21T00:57:13;20.41;113.29
71254;HTU21D;59019;47.638;18.966;2023-08-21T00:59:39;20.42;112.13
71254;HTU21D;59019;47.638;18.966;2023-08-21T01:02:05;20.41;109.78
71254;HTU21D;59019;47.638;18.966;2023-08-21T01:04:31;20.41;109.23
71254;HTU21D;59019;47.638;18.966;2023-08-21T01:06:57;20.33;108.56
71254;HTU21D;59019;47.638;18.966;2023-08-21T01:09:49;20.30;109.21
71254;HTU21D;59019;47.638;18.966;2023-08-21T01:15:02;20.24;109.71
71254;HTU21D;59019;47.638;18.966;2023-08-21T01:17:37;20.20;109.59
71254;HTU21D;59019;47.638;18.966;2023-08-21T01:20:03;20.19;109.72
71254;HTU21D;59019;47.638;18.966;2023-08-21T01:22:37;20.16;109.43
71254;HTU21D;59019;47.638;18.966;2023-08-21T01:25:06;20.13;110.67
71254;HTU21D;59019;47.638;18.966;2023-08-21T01:27:33;20.14;110.66
71254;HTU21D;59019;47.638;18.966;2023-08-21T01:30:03;20.07;112.96
71254;HTU21D;59019;47.638;18.966;2023-08-21T01:34:59;20.01;115.45
71254;HTU21D;59019;47.638;18.966;2023-08-21T01:37:26;20.00;115.77
71254;HTU21D;59019;47.638;18.966;2023-08-21T01:39:54;20.00;114.98
71254;HTU21D;59019;47.638;18.966;2023-08-21T01:42:22;20.00;114.77
71254;HTU21D;59019;47.638;18.966;2023-08-21T01:44:48;19.97;114.54
71254;HTU21D;59019;47.638;18.966;2023-08-21T01:47:14;20.03;113.08
71254;HTU21D;59019;47.638;18.966;2023-08-21T01:49:39;19.97;113.73
71254;HTU21D;59019;47.638;18.966;2023-08-21T01:52:05;20.02;112.90
71254;HTU21D;59019;47.638;18.966;2023-08-21T01:54:30;19.97;112.44
71254;HTU21D;59019;47.638;18.966;2023-08-21T01:56:56;20.01;112.39
71254;HTU21D;59019;47.638;18.966;2023-08-21T01:59:23;19.97;112.02
71254;HTU21D;59019;47.638;18.966;2023-08-21T02:01:49;19.98;112.22
71254;HTU21D;59019;47.638;18.966;2023-08-21T02:04:14;19.91;113.35
71254;HTU21D;59019;47.638;18.966;2023-08-21T02:06:40;19.91;112.66
71254;HTU21D;59019;47.638;18.966;2023-08-21T02:09:09;19.87;114.25
71254;HTU21D;59019;47.638;18.966;2023-08-21T02:11:35;19.92;115.24
71254;HTU21D;59019;47.638;18.966;2023-08-21T02:14:00;19.88;115.50
71254;HTU21D;59019;47.638;18.966;2023-08-21T02:16:28;19.89;114.16
71254;HTU21D;59019;47.638;18.966;2023-08-21T02:18:54;19.88;113.96
71254;HTU21D;59019;47.638;18.966;2023-08-21T02:21:20;19.89;113.22
71254;HTU21D;59019;47.638;18.966;2023-08-21T02:23:46;19.87;114.09
71254;HTU21D;59019;47.638;18.966;2023-08-21T02:26:11;19.82;114.05
71254;HTU21D;59019;47.638;18.966;2023-08-21T02:28:37;19.83;113.77
71254;HTU21D;59019;47.638;18.966;2023-08-21T02:31:02;19.80;116.44
71254;HTU21D;59019;47.638;18.966;2023-08-21T02:33:28;19.75;117.29
71254;HTU21D;59019;47.638;18.966;2023-08-21T02:35:53;19.73;117.51
71254;HTU21D;59019;47.638;18.966;2023-08-21T02:38:19;19.73;117.56
71254;HTU21D;59019;47.638;18.966;2023-08-21T02:40:44;19.77;117.62
71254;HTU21D;59019;47.638;18.966;2023-08-21T02:43:10;19.74;117.73
71254;HTU21D;59019;47.638;18.966;2023-08-21T02:45:38;19.70;-4.89
71254;HTU21D;59019;47.638;18.966;2023-08-21T02:48:04;19.71;-4.95
71254;HTU21D;59019;47.638;18.966;2023-08-21T02:50:29;19.80;117.89
71254;HTU21D;59019;47.638;18.966;2023-08-21T02:52:55;19.80;115.77
71254;HTU21D;59019;47.638;18.966;2023-08-21T02:55:21;19.75;116.43
71254;HTU21D;59019;47.638;18.966;2023-08-21T02:57:47;19.75;117.50
71254;HTU21D;59019;47.638;18.966;2023-08-21T03:00:12;19.74;118.57
71254;HTU21D;59019;47.638;18.966;2023-08-21T03:02:38;19.74;118.19
71254;HTU21D;59019;47.638;18.966;2023-08-21T03:05:08;19.72;117.85
71254;HTU21D;59019;47.638;18.966;2023-08-21T03:07:34;19.72;118.53
71254;HTU21D;59019;47.638;18.966;2023-08-21T03:10:00;19.75;116.81
71254;HTU21D;59019;47.638;18.966;2023-08-21T03:12:27;19.79;114.48
71254;HTU21D;59019;47.638;18.966;2023-08-21T03:14:52;19.73;113.60
71254;HTU21D;59019;47.638;18.966;2023-08-21T03:17:18;19.83;111.69
71254;HTU21D;59019;47.638;18.966;2023-08-21T03:19:44;19.85;109.60
71254;HTU21D;59019;47.638;18.966;2023-08-21T03:22:09;19.79;109.16
71254;HTU21D;59019;47.638;18.966;2023-08-21T03:24:35;19.66;109.59
71254;HTU21D;59019;47.638;18.966;2023-08-21T03:27:01;19.62;109.15
71254;HTU21D;59019;47.638;18.966;2023-08-21T03:29:27;19.52;110.29
71254;HTU21D;59019;47.638;18.966;2023-08-21T03:31:53;19.43;112.49
71254;HTU21D;59019;47.638;18.966;2023-08-21T03:34:22;19.42;112.77
71254;HTU21D;59019;47.638;18.966;2023-08-21T03:36:48;19.37;115.06
71254;HTU21D;59019;47.638;18.966;2023-08-21T03:39:13;19.32;118.82
71254;HTU21D;59019;47.638;18.966;2023-08-21T03:41:39;19.31;-5.07
71254;HTU21D;59019;47.638;18.966;2023-08-21T03:44:04;19.26;-1.83
71254;HTU21D;59019;47.638;18.966;2023-08-21T03:46:30;19.27;0.50
71254;HTU21D;59019;47.638;18.966;2023-08-21T03:48:56;19.26;0.23
71254;HTU21D;59019;47.638;18.966;2023-08-21T03:51:21;19.32;1.62
71254;HTU21D;59019;47.638;18.966;2023-08-21T03:53:47;19.37;-0.29
71254;HTU21D;59019;47.638;18.966;2023-08-21T03:56:12;19.39;-1.52
71254;HTU21D;59019;47.638;18.966;2023-08-21T03:58:38;19.42;-1.12
71254;HTU21D;59019;47.638;18.966;2023-08-21T04:01:03;19.44;-1.72
71254;HTU21D;59019;47.638;18.966;2023-08-21T04:03:29;19.47;-1.90
71254;HTU21D;59019;47.638;18.966;2023-08-21T04:05:55;19.50;-3.78
71254;HTU21D;59019;47.638;18.966;2023-08-21T04:08:22;19.54;-5.40
71254;HTU21D;59019;47.638;18.966;2023-08-21T04:10:48;19.56;-2.56
71254;HTU21D;59019;47.638;18.966;2023-08-21T04:13:13;19.58;-1.33
71254;HTU21D;59019;47.638;18.966;2023-08-21T04:15:39;19.63;-3.93
71254;HTU21D;59019;47.638;18.966;2023-08-21T04:18:09;19.69;1.62
71254;HTU21D;59019;47.638;18.966;2023-08-21T04:20:35;19.75;5.86
71254;HTU21D;59019;47.638;18.966;2023-08-21T04:23:00;19.76;2.06
71254;HTU21D;59019;47.638;18.966;2023-08-21T04:25:26;19.76;-2.26
71254;HTU21D;59019;47.638;18.966;2023-08-21T04:27:51;19.85;-2.15
71254;HTU21D;59019;47.638;18.966;2023-08-21T04:30:17;19.85;-2.28
71254;HTU21D;59019;47.638;18.966;2023-08-21T04:32:42;19.92;1.03
71254;HTU21D;59019;47.638;18.966;2023-08-21T04:35:08;19.99;7.03
71254;HTU21D;59019;47.638;18.966;2023-08-21T04:37:34;20.01;5.25
71254;HTU21D;59019;47.638;18.966;2023-08-21T04:40:00;20.05;0.07
71254;HTU21D;59019;47.638;18.966;2023-08-21T04:42:25;20.14;-1.54
71254;HTU21D;59019;47.638;18.966;2023-08-21T04:44:51;20.24;-1.03
71254;HTU21D;59019;47.638;18.966;2023-08-21T04:49:46;20.77;118.20
71254;HTU21D;59019;47.638;18.966;2023-08-21T04:52:11;21.01;115.30
71254;HTU21D;59019;47.638;18.966;2023-08-21T04:54:37;21.27;114.21
71254;HTU21D;59019;47.638;18.966;2023-08-21T04:57:02;21.46;110.78
71254;HTU21D;59019;47.638;18.966;2023-08-21T04:59:28;21.62;110.22
71254;HTU21D;59019;47.638;18.966;2023-08-21T05:01:56;21.79;108.65
71254;HTU21D;59019;47.638;18.966;2023-08-21T05:04:22;21.96;107.59
71254;HTU21D;59019;47.638;18.966;2023-08-21T05:06:48;22.14;105.33
71254;HTU21D;59019;47.638;18.966;2023-08-21T05:09:13;22.33;104.46
71254;HTU21D;59019;47.638;18.966;2023-08-21T05:11:40;22.57;104.22
71254;HTU21D;59019;47.638;18.966;2023-08-21T05:14:05;22.77;103.33
71254;HTU21D;59019;47.638;18.966;2023-08-21T05:16:31;22.94;102.01
71254;HTU21D;59019;47.638;18.966;2023-08-21T05:18:57;23.16;100.59
71254;HTU21D;59019;47.638;18.966;2023-08-21T05:21:22;23.39;100.48
71254;HTU21D;59019;47.638;18.966;2023-08-21T05:23:48;23.62;100.12
71254;HTU21D;59019;47.638;18.966;2023-08-21T05:26:16;23.88;99.56
71254;HTU21D;59019;47.638;18.966;2023-08-21T05:28:42;24.16;98.62
71254;HTU21D;59019;47.638;18.966;2023-08-21T05:31:07;24.44;98.22
71254;HTU21D;59019;47.638;18.966;2023-08-21T05:33:33;24.61;96.65
71254;HTU21D;59019;47.638;18.966;2023-08-21T05:35:58;24.85;96.43
71254;HTU21D;59019;47.638;18.966;2023-08-21T05:38:27;25.09;95.42
71254;HTU21D;59019;47.638;18.966;2023-08-21T05:40:52;25.34;94.51
71254;HTU21D;59019;47.638;18.966;2023-08-21T05:43:21;25.52;93.33
71254;HTU21D;59019;47.638;18.966;2023-08-21T05:45:47;25.79;94.01
71254;HTU21D;59019;47.638;18.966;2023-08-21T05:48:13;26.17;93.52
71254;HTU21D;59019;47.638;18.966;2023-08-21T05:50:38;26.37;92.23
71254;HTU21D;59019;47.638;18.966;2023-08-21T05:53:05;26.70;90.39
71254;HTU21D;59019;47.638;18.966;2023-08-21T05:55:30;27.01;89.59
71254;HTU21D;59019;47.638;18.966;2023-08-21T05:57:56;27.23;88.31
71254;HTU21D;59019;47.638;18.966;2023-08-21T06:00:21;27.38;87.03
71254;HTU21D;59019;47.638;18.966;2023-08-21T06:02:47;27.47;89.32
71254;HTU21D;59019;47.638;18.966;2023-08-21T06:05:15;27.64;86.15
71254;HTU21D;59019;47.638;18.966;2023-08-21T06:07:41;27.78;85.87
71254;HTU21D;59019;47.638;18.966;2023-08-21T06:10:07;27.95;84.93
71254;HTU21D;59019;47.638;18.966;2023-08-21T06:12:33;28.16;86.45
71254;HTU21D;59019;47.638;18.966;2023-08-21T06:14:59;28.40;84.54
71254;HTU21D;59019;47.638;18.966;2023-08-21T06:17:27;28.69;85.35
71254;HTU21D;59019;47.638;18.966;2023-08-21T06:19:52;28.97;83.73
71254;HTU21D;59019;47.638;18.966;2023-08-21T06:22:18;29.13;82.97
71254;HTU21D;59019;47.638;18.966;2023-08-21T06:24:43;29.23;82.84
71254;HTU21D;59019;47.638;18.966;2023-08-21T06:27:09;29.45;83.10
71254;HTU21D;59019;47.638;18.966;2023-08-21T06:29:34;29.70;82.20
71254;HTU21D;59019;47.638;18.966;2023-08-21T06:32:00;29.91;80.87
71254;HTU21D;59019;47.638;18.966;2023-08-21T06:34:25;30.15;79.48
71254;HTU21D;59019;47.638;18.966;2023-08-21T06:36:51;30.40;79.24
71254;HTU21D;59019;47.638;18.966;2023-08-21T06:39:16;30.62;78.98
71254;HTU21D;59019;47.638;18.966;2023-08-21T06:41:42;30.82;78.69
71254;HTU21D;59019;47.638;18.966;2023-08-21T06:44:07;31.15;77.17
71254;HTU21D;59019;47.638;18.966;2023-08-21T06:46:33;31.58;75.11
71254;HTU21D;59019;47.638;18.966;2023-08-21T06:48:59;31.99;73.95
71254;HTU21D;59019;47.638;18.966;2023-08-21T06:51:25;32.09;74.08
71254;HTU21D;59019;47.638;18.966;2023-08-21T06:53:50;32.30;73.13
71254;HTU21D;59019;47.638;18.966;2023-08-21T06:56:16;32.71;73.26
71254;HTU21D;59019;47.638;18.966;2023-08-21T06:58:41;32.96;72.91
71254;HTU21D;59019;47.638;18.966;2023-08-21T07:01:07;33.12;71.60
71254;HTU21D;59019;47.638;18.966;2023-08-21T07:03:32;33.21;70.14
71254;HTU21D;59019;47.638;18.966;2023-08-21T07:05:59;33.40;71.04
71254;HTU21D;59019;47.638;18.966;2023-08-21T07:08:26;33.65;70.73
71254;HTU21D;59019;47.638;18.966;2023-08-21T07:10:52;33.82;69.83
71254;HTU21D;59019;47.638;18.966;2023-08-21T07:13:18;33.55;66.65
71254;HTU21D;59019;47.638;18.966;2023-08-21T07:15:45;33.52;68.30
71254;HTU21D;59019;47.638;18.966;2023-08-21T07:18:10;33.93;67.78
71254;HTU21D;59019;47.638;18.966;2023-08-21T07:20:36;34.22;67.14
71254;HTU21D;59019;47.638;18.966;2023-08-21T07:23:01;34.14;64.47
71254;HTU21D;59019;47.638;18.966;2023-08-21T07:25:27;33.59;65.01
71254;HTU21D;59019;47.638;18.966;2023-08-21T07:27:54;33.87;66.26
71254;HTU21D;59019;47.638;18.966;2023-08-21T07:30:20;34.36;66.69
71254;HTU21D;59019;47.638;18.966;2023-08-21T07:32:46;34.64;65.62
71254;HTU21D;59019;47.638;18.966;2023-08-21T07:35:12;34.66;65.11
71254;HTU21D;59019;47.638;18.966;2023-08-21T07:37:38;33.14;64.60
71254;HTU21D;59019;47.638;18.966;2023-08-21T07:40:05;33.48;65.04
71254;HTU21D;59019;47.638;18.966;2023-08-21T07:42:30;33.82;64.71
71254;HTU21D;59019;47.638;18.966;2023-08-21T07:44:56;34.00;64.33
71254;HTU21D;59019;47.638;18.966;2023-08-21T07:47:21;34.32;62.76
71254;HTU21D;59019;47.638;18.966;2023-08-21T07:49:47;34.82;62.86
71254;HTU21D;59019;47.638;18.966;2023-08-21T07:52:12;35.19;61.59
71254;HTU21D;59019;47.638;18.966;2023-08-21T07:54:38;35.29;61.21
71254;HTU21D;59019;47.638;18.966;2023-08-21T07:57:04;34.95;60.70
71254;HTU21D;59019;47.638;18.966;2023-08-21T07:59:29;34.96;60.44
71254;HTU21D;59019;47.638;18.966;2023-08-21T08:01:55;35.33;59.74
71254;HTU21D;59019;47.638;18.966;2023-08-21T08:04:21;35.75;58.91
71254;HTU21D;59019;47.638;18.966;2023-08-21T08:06:46;35.85;59.57
71254;HTU21D;59019;47.638;18.966;2023-08-21T08:09:12;36.00;58.36
71254;HTU21D;59019;47.638;18.966;2023-08-21T08:11:38;36.19;58.67
71254;HTU21D;59019;47.638;18.966;2023-08-21T08:14:03;36.49;58.58
71254;HTU21D;59019;47.638;18.966;2023-08-21T08:16:31;36.42;57.59
71254;HTU21D;59019;47.638;18.966;2023-08-21T08:18:57;36.06;58.87
71254;HTU21D;59019;47.638;18.966;2023-08-21T08:21:23;36.19;59.08
71254;HTU21D;59019;47.638;18.966;2023-08-21T08:23:49;36.49;58.14
71254;HTU21D;59019;47.638;18.966;2023-08-21T08:26:14;36.92;58.43
71254;HTU21D;59019;47.638;18.966;2023-08-21T08:28:42;36.97;56.54
71254;HTU21D;59019;47.638;18.966;2023-08-21T08:31:14;37.30;55.36
71254;HTU21D;59019;47.638;18.966;2023-08-21T08:33:40;37.50;55.98
71254;HTU21D;59019;47.638;18.966;2023-08-21T08:36:05;37.75;55.37
71254;HTU21D;59019;47.638;18.966;2023-08-21T08:38:31;37.95;55.04
71254;HTU21D;59019;47.638;18.966;2023-08-21T08:40:56;38.17;54.16
71254;HTU21D;59019;47.638;18.966;2023-08-21T08:43:25;38.18;53.00
71254;HTU21D;59019;47.638;18.966;2023-08-21T08:45:52;37.02;56.02
71254;HTU21D;59019;47.638;18.966;2023-08-21T08:48:20;37.38;55.65
71254;HTU21D;59019;47.638;18.966;2023-08-21T08:50:47;37.55;55.38
71254;HTU21D;59019;47.638;18.966;2023-08-21T08:53:14;37.86;55.41
71254;HTU21D;59019;47.638;18.966;2023-08-21T08:55:40;38.22;54.30
71254;HTU21D;59019;47.638;18.966;2023-08-21T08:58:06;37.70;53.84
71254;HTU21D;59019;47.638;18.966;2023-08-21T09:00:31;37.57;54.74
71254;HTU21D;59019;47.638;18.966;2023-08-21T09:02:57;37.87;53.91
71254;HTU21D;59019;47.638;18.966;2023-08-21T09:05:23;38.41;52.91
71254;HTU21D;59019;47.638;18.966;2023-08-21T09:10:34;38.58;52.79
71254;HTU21D;59019;47.638;18.966;2023-08-21T09:13:01;38.37;51.56
71254;HTU21D;59019;47.638;18.966;2023-08-21T09:15:30;38.45;52.30
71254;HTU21D;59019;47.638;18.966;2023-08-21T09:17:56;38.64;50.71
71254;HTU21D;59019;47.638;18.966;2023-08-21T09:20:22;38.91;49.76
71254;HTU21D;59019;47.638;18.966;2023-08-21T09:22:54;39.11;50.07
71254;HTU21D;59019;47.638;18.966;2023-08-21T09:25:23;38.88;49.84
71254;HTU21D;59019;47.638;18.966;2023-08-21T09:27:52;39.22;49.51
71254;HTU21D;59019;47.638;18.966;2023-08-21T09:30:23;39.05;48.33
71254;HTU21D;59019;47.638;18.966;2023-08-21T09:32:56;38.22;49.17
71254;HTU21D;59019;47.638;18.966;2023-08-21T09:35:25;36.88;51.33
71254;HTU21D;59019;47.638;18.966;2023-08-21T09:37:51;36.70;52.81
71254;HTU21D;59019;47.638;18.966;2023-08-21T09:40:21;37.54;52.15
71254;HTU21D;59019;47.638;18.966;2023-08-21T09:42:53;37.48;52.42
71254;HTU21D;59019;47.638;18.966;2023-08-21T09:45:23;37.25;52.35
71254;HTU21D;59019;47.638;18.966;2023-08-21T09:47:52;38.03;52.14
71254;HTU21D;59019;47.638;18.966;2023-08-21T09:50:18;38.44;49.76
71254;HTU21D;59019;47.638;18.966;2023-08-21T09:52:45;38.59;49.32
71254;HTU21D;59019;47.638;18.966;2023-08-21T09:55:13;38.64;50.53
71254;HTU21D;59019;47.638;18.966;2023-08-21T09:57:39;38.89;49.61
71254;HTU21D;59019;47.638;18.966;2023-08-21T10:00:07;37.55;49.67
71254;HTU21D;59019;47.638;18.966;2023-08-21T10:02:56;37.99;51.54
71254;HTU21D;59019;47.638;18.966;2023-08-21T10:05:24;38.17;50.15
71254;HTU21D;59019;47.638;18.966;2023-08-21T10:07:50;38.86;49.50
71254;HTU21D;59019;47.638;18.966;2023-08-21T10:10:17;39.24;48.04
71254;HTU21D;59019;47.638;18.966;2023-08-21T10:12:43;39.33;46.77
71254;HTU21D;59019;47.638;18.966;2023-08-21T10:15:21;39.45;46.88
71254;HTU21D;59019;47.638;18.966;2023-08-21T10:17:50;39.30;47.79
71254;HTU21D;59019;47.638;18.966;2023-08-21T10:20:23;39.17;48.02
71254;HTU21D;59019;47.638;18.966;2023-08-21T10:22:53;39.35;47.86
71254;HTU21D;59019;47.638;18.966;2023-08-21T10:25:23;39.52;47.65
71254;HTU21D;59019;47.638;18.966;2023-08-21T10:27:57;38.80;48.38
71254;HTU21D;59019;47.638;18.966;2023-08-21T10:30:27;39.12;47.94
71254;HTU21D;59019;47.638;18.966;2023-08-21T10:32:58;38.99;47.28
71254;HTU21D;59019;47.638;18.966;2023-08-21T10:35:25;38.59;48.78
71254;HTU21D;59019;47.638;18.966;2023-08-21T10:38:11;39.42;47.48
71254;HTU21D;59019;47.638;18.966;2023-08-21T10:40:39;39.88;47.02
71254;HTU21D;59019;47.638;18.966;2023-08-21T10:43:04;39.80;47.86
71254;HTU21D;59019;47.638;18.966;2023-08-21T10:45:56;40.39;47.75
71254;HTU21D;59019;47.638;18.966;2023-08-21T10:48:21;40.71;46.08
71254;HTU21D;59019;47.638;18.966;2023-08-21T10:50:47;40.73;45.42
71254;HTU21D;59019;47.638;18.966;2023-08-21T10:53:13;40.68;46.16
71254;HTU21D;59019;47.638;18.966;2023-08-21T10:55:39;40.53;45.29
71254;HTU21D;59019;47.638;18.966;2023-08-21T10:58:05;40.12;47.04
71254;HTU21D;59019;47.638;18.966;2023-08-21T11:00:34;40.63;43.42
71254;HTU21D;59019;47.638;18.966;2023-08-21T11:03:00;40.85;44.41
71254;HTU21D;59019;47.638;18.966;2023-08-21T11:05:26;41.19;43.71
71254;HTU21D;59019;47.638;18.966;2023-08-21T11:07:51;40.36;44.56
71254;HTU21D;59019;47.638;18.966;2023-08-21T11:10:22;40.67;44.41
71254;HTU21D;59019;47.638;18.966;2023-08-21T11:12:56;41.18;43.95
71254;HTU21D;59019;47.638;18.966;2023-08-21T11:15:22;41.40;43.52
71254;HTU21D;59019;47.638;18.966;2023-08-21T11:17:56;41.42;43.77
71254;HTU21D;59019;47.638;18.966;2023-08-21T11:20:23;41.48;43.61
71254;HTU21D;59019;47.638;18.966;2023-08-21T11:22:59;42.10;42.81
71254;HTU21D;59019;47.638;18.966;2023-08-21T11:25:28;42.18;42.30
71254;HTU21D;59019;47.638;18.966;2023-08-21T11:27:54;42.51;41.74
71254;HTU21D;59019;47.638;18.966;2023-08-21T11:30:22;42.49;41.85
71254;HTU21D;59019;47.638;18.966;2023-08-21T11:32:49;42.19;42.98
71254;HTU21D;59019;47.638;18.966;2023-08-21T11:35:14;42.47;41.66
71254;HTU21D;59019;47.638;18.966;2023-08-21T11:37:44;42.37;41.97
71254;HTU21D;59019;47.638;18.966;2023-08-21T11:40:12;42.08;41.35
71254;HTU21D;59019;47.638;18.966;2023-08-21T11:42:42;41.15;42.13
71254;HTU21D;59019;47.638;18.966;2023-08-21T11:45:09;40.93;43.73
71254;HTU21D;59019;47.638;18.966;2023-08-21T11:47:35;41.39;42.69
71254;HTU21D;59019;47.638;18.966;2023-08-21T11:50:06;41.73;42.00
71254;HTU21D;59019;47.638;18.966;2023-08-21T11:52:33;41.63;41.71
71254;HTU21D;59019;47.638;18.966;2023-08-21T11:55:01;41.51;42.28
71254;HTU21D;59019;47.638;18.966;2023-08-21T11:57:26;41.79;41.81
71254;HTU21D;59019;47.638;18.966;2023-08-21T11:59:54;41.77;40.45
71254;HTU21D;59019;47.638;18.966;2023-08-21T12:02:26;41.93;39.49
71254;HTU21D;59019;47.638;18.966;2023-08-21T12:05:03;41.98;40.07
71254;HTU21D;59019;47.638;18.966;2023-08-21T12:07:30;41.35;40.79
71254;HTU21D;59019;47.638;18.966;2023-08-21T12:09:56;41.64;40.79
71254;HTU21D;59019;47.638;18.966;2023-08-21T12:12:22;41.44;40.46
71254;HTU21D;59019;47.638;18.966;2023-08-21T12:14:48;40.91;42.26
71254;HTU21D;59019;47.638;18.966;2023-08-21T12:17:14;41.24;41.06
71254;HTU21D;59019;47.638;18.966;2023-08-21T12:19:39;41.33;41.39
71254;HTU21D;59019;47.638;18.966;2023-08-21T12:22:05;41.35;40.61
71254;HTU21D;59019;47.638;18.966;2023-08-21T12:24:31;41.32;41.90
71254;HTU21D;59019;47.638;18.966;2023-08-21T12:26:57;41.44;40.94
71254;HTU21D;59019;47.638;18.966;2023-08-21T12:29:22;41.46;40.86
71254;HTU21D;59019;47.638;18.966;2023-08-21T12:31:48;41.48;41.92
71254;HTU21D;59019;47.638;18.966;2023-08-21T12:34:13;41.50;41.40
71254;HTU21D;59019;47.638;18.966;2023-08-21T12:36:39;41.43;42.50
71254;HTU21D;59019;47.638;18.966;2023-08-21T12:39:06;40.77;41.80
71254;HTU21D;59019;47.638;18.966;2023-08-21T12:41:35;40.62;42.22
71254;HTU21D;59019;47.638;18.966;2023-08-21T12:44:02;40.95;41.58
71254;HTU21D;59019;47.638;18.966;2023-08-21T12:46:34;40.88;40.37
71254;HTU21D;59019;47.638;18.966;2023-08-21T12:49:00;40.48;42.03
71254;HTU21D;59019;47.638;18.966;2023-08-21T12:51:27;40.36;42.68
71254;HTU21D;59019;47.638;18.966;2023-08-21T12:53:54;40.30;42.56
71254;HTU21D;59019;47.638;18.966;2023-08-21T12:56:19;40.15;43.33
71254;HTU21D;59019;47.638;18.966;2023-08-21T12:58:48;40.48;44.24
71254;HTU21D;59019;47.638;18.966;2023-08-21T13:01:14;40.80;43.93
71254;HTU21D;59019;47.638;18.966;2023-08-21T13:03:46;40.80;43.94
71254;HTU21D;59019;47.638;18.966;2023-08-21T13:06:15;40.42;42.32
71254;HTU21D;59019;47.638;18.966;2023-08-21T13:08:41;39.97;42.01
71254;HTU21D;59019;47.638;18.966;2023-08-21T13:11:09;40.48;42.75
71254;HTU21D;59019;47.638;18.966;2023-08-21T13:13:35;41.09;42.07
71254;HTU21D;59019;47.638;18.966;2023-08-21T13:16:01;41.06;43.27
71254;HTU21D;59019;47.638;18.966;2023-08-21T13:18:27;41.14;44.30
71254;HTU21D;59019;47.638;18.966;2023-08-21T13:20:52;41.31;43.00
71254;HTU21D;59019;47.638;18.966;2023-08-21T13:23:21;41.40;43.15
71254;HTU21D;59019;47.638;18.966;2023-08-21T13:25:47;41.05;43.70
71254;HTU21D;59019;47.638;18.966;2023-08-21T13:28:13;40.97;43.45
71254;HTU21D;59019;47.638;18.966;2023-08-21T13:30:38;40.72;43.87
71254;HTU21D;59019;47.638;18.966;2023-08-21T13:33:04;40.80;43.47
71254;HTU21D;59019;47.638;18.966;2023-08-21T13:35:30;41.13;43.50
71254;HTU21D;59019;47.638;18.966;2023-08-21T13:37:55;40.81;44.03
71254;HTU21D;59019;47.638;18.966;2023-08-21T13:40:21;38.96;45.70
71254;HTU21D;59019;47.638;18.966;2023-08-21T13:42:47;38.84;48.05
71254;HTU21D;59019;47.638;18.966;2023-08-21T13:45:15;38.74;49.02
71254;HTU21D;59019;47.638;18.966;2023-08-21T13:47:43;38.56;48.84
71254;HTU21D;59019;47.638;18.966;2023-08-21T13:50:10;38.51;49.64
71254;HTU21D;59019;47.638;18.966;2023-08-21T13:52:36;38.53;49.34
71254;HTU21D;59019;47.638;18.966;2023-08-21T13:55:05;38.21;51.40
71254;HTU21D;59019;47.638;18.966;2023-08-21T13:57:31;38.38;50.07
71254;HTU21D;59019;47.638;18.966;2023-08-21T13:59:59;38.83;49.53
71254;HTU21D;59019;47.638;18.966;2023-08-21T14:02:24;39.06;48.71
71254;HTU21D;59019;47.638;18.966;2023-08-21T14:04:50;39.02;49.74
71254;HTU21D;59019;47.638;18.966;2023-08-21T14:07:15;38.80;50.21
71254;HTU21D;59019;47.638;18.966;2023-08-21T14:09:41;38.31;51.79
71254;HTU21D;59019;47.638;18.966;2023-08-21T14:12:07;38.08;53.06
71254;HTU21D;59019;47.638;18.966;2023-08-21T14:14:34;37.69;55.71
71254;HTU21D;59019;47.638;18.966;2023-08-21T14:17:00;37.27;53.22
71254;HTU21D;59019;47.638;18.966;2023-08-21T14:19:26;37.26;54.57
71254;HTU21D;59019;47.638;18.966;2023-08-21T14:21:51;37.33;53.95
71254;HTU21D;59019;47.638;18.966;2023-08-21T14:24:17;36.87;55.59
71254;HTU21D;59019;47.638;18.966;2023-08-21T14:26:42;36.66;54.44
71254;HTU21D;59019;47.638;18.966;2023-08-21T14:29:08;36.41;56.83
71254;HTU21D;59019;47.638;18.966;2023-08-21T14:31:33;36.33;58.75
71254;HTU21D;59019;47.638;18.966;2023-08-21T14:34:02;35.93;60.57
71254;HTU21D;59019;47.638;18.966;2023-08-21T14:36:27;35.42;61.99
71254;HTU21D;59019;47.638;18.966;2023-08-21T14:38:53;35.09;62.59
71254;HTU21D;59019;47.638;18.966;2023-08-21T14:41:19;34.47;64.56
71254;HTU21D;59019;47.638;18.966;2023-08-21T14:43:47;33.37;68.04
71254;HTU21D;59019;47.638;18.966;2023-08-21T14:46:12;32.39;70.04
71254;HTU21D;59019;47.638;18.966;2023-08-21T14:48:38;32.19;70.62
71254;HTU21D;59019;47.638;18.966;2023-08-21T14:51:07;32.20;71.12
71254;HTU21D;59019;47.638;18.966;2023-08-21T14:53:33;31.97;69.85
71254;HTU21D;59019;47.638;18.966;2023-08-21T14:55:58;32.90;68.25
71254;HTU21D;59019;47.638;18.966;2023-08-21T14:58:24;33.80;66.90
71254;HTU21D;59019;47.638;18.966;2023-08-21T15:00:53;34.44;65.62
71254;HTU21D;59019;47.638;18.966;2023-08-21T15:03:19;34.94;65.14
71254;HTU21D;59019;47.638;18.966;2023-08-21T15:05:45;35.31;64.62